createdAt,value
2022-09-12T00:01:27.991Z,97920.63
2022-09-12T00:04:01.912Z,97915.91
2022-09-12T00:06:34.104Z,97910.09
2022-09-12T00:09:08.030Z,97913.75
2022-09-12T00:11:39.657Z,97910.38
2022-09-12T00:14:10.699Z,97900.56
2022-09-12T00:16:40.372Z,97903.41
2022-09-12T00:19:10.372Z,97899.41
2022-09-12T00:21:41.701Z,97896.25
2022-09-12T00:24:11.735Z,97905.84
2022-09-12T00:26:41.875Z,97894.06
2022-09-12T00:29:15.916Z,97888.31
2022-09-12T00:31:45.179Z,97904.50
2022-09-12T00:34:14.190Z,97900.28
2022-09-12T00:36:43.005Z,97902.09
2022-09-12T00:39:17.494Z,97895.50
2022-09-12T00:41:47.530Z,97895.66
2022-09-12T00:44:51.894Z,97892.38
2022-09-12T00:47:30.450Z,97897.69
2022-09-12T00:50:06.394Z,97894.41
2022-09-12T00:52:42.808Z,97890.72
2022-09-12T00:55:17.430Z,97882.94
2022-09-12T00:57:56.780Z,97896.16
2022-09-12T01:00:28.274Z,97897.53
2022-09-12T01:03:02.968Z,97894.44
2022-09-12T01:05:35.868Z,97886.59
2022-09-12T01:08:06.729Z,97890.06
2022-09-12T01:10:39.080Z,97890.34
2022-09-12T01:13:12.337Z,97890.00
2022-09-12T01:15:41.772Z,97882.72
2022-09-12T01:18:22.980Z,97880.97
2022-09-12T01:21:15.512Z,97881.28
2022-09-12T01:24:22.407Z,97876.31
2022-09-12T01:27:28.009Z,97877.97
2022-09-12T01:30:24.715Z,97878.63
2022-09-12T01:33:32.994Z,97876.16
2022-09-12T01:36:35.761Z,97875.97
2022-09-12T01:39:15.002Z,97880.44
2022-09-12T01:41:55.021Z,97881.06
2022-09-12T01:44:38.537Z,97872.06
2022-09-12T01:47:18.621Z,97880.56
2022-09-12T01:49:59.437Z,97874.44
2022-09-12T01:52:39.395Z,97869.78
2022-09-12T01:55:16.053Z,97868.25
2022-09-12T01:57:52.712Z,97866.44
2022-09-12T02:00:21.635Z,97863.97
2022-09-12T02:03:02.932Z,97865.69
2022-09-12T02:05:35.990Z,97872.09
2022-09-12T02:08:11.526Z,97865.44
2022-09-12T02:10:47.454Z,97864.31
2022-09-12T02:13:24.265Z,97859.25
2022-09-12T02:15:59.645Z,97856.53
2022-09-12T02:18:34.656Z,97853.44
2022-09-12T02:21:07.298Z,97855.53
2022-09-12T02:23:44.881Z,97852.28
2022-09-12T02:26:22.334Z,97851.63
2022-09-12T02:28:52.863Z,97861.06
2022-09-12T02:31:29.887Z,97852.47
2022-09-12T02:34:15.008Z,97851.47
2022-09-12T02:36:52.884Z,97847.03
2022-09-12T02:39:22.204Z,97855.22
2022-09-12T02:41:53.872Z,97854.19
2022-09-12T02:44:23.635Z,97850.94
2022-09-12T02:46:58.555Z,97846.56
2022-09-12T02:49:28.577Z,97842.53
2022-09-12T02:51:57.602Z,97848.41
2022-09-12T02:54:27.053Z,97848.41
2022-09-12T02:56:55.661Z,97846.13
2022-09-12T02:59:26.076Z,97841.97
2022-09-12T03:02:15.565Z,97843.59
2022-09-12T03:05:22.098Z,97839.34
2022-09-12T03:08:21.864Z,97835.38
2022-09-12T03:11:28.531Z,97835.97
2022-09-12T03:14:17.146Z,97846.75
2022-09-12T03:16:58.193Z,97843.09
2022-09-12T03:19:40.262Z,97841.75
2022-09-12T03:22:22.083Z,97840.44
2022-09-12T03:24:59.422Z,97841.94
2022-09-12T03:27:35.275Z,97847.66
2022-09-12T03:30:06.334Z,97844.41
2022-09-12T03:33:33.811Z,97849.59
2022-09-12T03:36:02.294Z,97846.31
2022-09-12T03:38:32.004Z,97846.09
2022-09-12T03:41:01.953Z,97842.16
2022-09-12T03:43:30.284Z,97849.88
2022-09-12T03:45:58.726Z,97857.06
2022-09-12T03:48:27.243Z,97847.00
2022-09-12T03:50:55.576Z,97845.25
2022-09-12T03:53:23.924Z,97847.28
2022-09-12T03:55:53.601Z,97843.91
2022-09-12T03:58:21.985Z,97849.16
2022-09-12T04:00:50.598Z,97843.31
2022-09-12T04:03:19.885Z,97850.34
2022-09-12T04:05:48.540Z,97843.50
2022-09-12T04:08:16.973Z,97851.81
2022-09-12T04:10:46.969Z,97854.19
2022-09-12T04:13:16.749Z,97853.44
2022-09-12T04:15:45.077Z,97845.09
2022-09-12T04:18:13.435Z,97845.78
2022-09-12T04:20:42.669Z,97850.22
2022-09-12T04:23:11.018Z,97848.41
2022-09-12T04:25:39.422Z,97852.09
2022-09-12T04:28:07.754Z,97856.19
2022-09-12T04:30:37.981Z,97845.38
2022-09-12T04:33:08.253Z,97838.63
2022-09-12T04:35:37.187Z,97847.50
2022-09-12T04:38:05.653Z,97841.50
2022-09-12T04:40:34.305Z,97845.81
2022-09-12T04:43:02.824Z,97842.03
2022-09-12T04:45:31.293Z,97836.38
2022-09-12T04:48:01.626Z,97839.72
2022-09-12T04:50:30.101Z,97847.94
2022-09-12T04:52:58.565Z,97842.94
2022-09-12T04:55:27.044Z,97840.50
2022-09-12T04:57:55.759Z,97852.78
2022-09-12T05:00:24.621Z,97850.38
2022-09-12T05:02:53.118Z,97847.69
2022-09-12T05:05:22.856Z,97850.88
2022-09-12T05:07:51.193Z,97850.19
2022-09-12T05:10:19.734Z,97856.28
2022-09-12T05:12:48.312Z,97857.91
2022-09-12T05:15:17.004Z,97866.03
2022-09-12T05:17:45.545Z,97869.09
2022-09-12T05:20:13.959Z,97865.06
2022-09-12T05:22:43.727Z,97861.06
2022-09-12T05:25:12.292Z,97863.81
2022-09-12T05:27:40.691Z,97867.03
2022-09-12T05:30:11.673Z,97865.13
2022-09-12T05:32:40.130Z,97874.63
2022-09-12T05:35:08.737Z,97877.91
2022-09-12T05:37:37.311Z,97880.16
2022-09-12T05:40:09.389Z,97877.25
2022-09-12T05:42:37.898Z,97880.94
2022-09-12T05:45:08.641Z,97881.44
2022-09-12T05:47:37.453Z,97878.63
2022-09-12T05:50:10.791Z,97876.78
2022-09-12T05:52:39.202Z,97884.69
2022-09-12T05:55:11.490Z,97881.75
2022-09-12T05:57:40.118Z,97886.75
2022-09-12T06:00:10.650Z,97887.16
2022-09-12T06:02:42.155Z,97889.06
2022-09-12T06:05:17.010Z,97886.28
2022-09-12T06:07:48.423Z,97883.75
2022-09-12T06:10:18.344Z,97886.75
2022-09-12T06:12:47.567Z,97877.34
2022-09-12T06:15:16.529Z,97885.13
2022-09-12T06:17:48.368Z,97880.59
2022-09-12T06:20:20.859Z,97881.09
2022-09-12T06:22:49.440Z,97877.25
2022-09-12T06:25:19.284Z,97878.34
2022-09-12T06:27:47.823Z,97876.75
2022-09-12T06:30:16.395Z,97875.97
2022-09-12T06:32:44.839Z,97881.22
2022-09-12T06:35:13.750Z,97884.44
2022-09-12T06:37:45.608Z,97881.91
2022-09-12T06:40:14.049Z,97883.13
2022-09-12T06:42:44.196Z,97884.88
2022-09-12T06:45:16.506Z,97882.69
2022-09-12T06:47:44.918Z,97883.34
2022-09-12T06:50:13.344Z,97877.72
2022-09-12T06:52:41.855Z,97878.25
2022-09-12T06:55:10.990Z,97875.47
2022-09-12T06:57:40.312Z,97886.28
2022-09-12T07:00:12.535Z,97890.53
2022-09-12T07:02:41.155Z,97884.75
2022-09-12T07:05:11.070Z,97881.44
2022-09-12T07:07:39.566Z,97876.91
2022-09-12T07:10:11.796Z,97886.34
2022-09-12T07:12:40.294Z,97877.53
2022-09-12T07:15:11.910Z,97878.19
2022-09-12T07:17:40.433Z,97876.19
2022-09-12T07:20:09.941Z,97875.38
2022-09-12T07:22:38.488Z,97878.53
2022-09-12T07:25:07.936Z,97883.53
2022-09-12T07:27:37.652Z,97880.94
2022-09-12T07:30:07.834Z,97883.19
2022-09-12T07:32:37.642Z,97879.03
2022-09-12T07:35:07.314Z,97874.63
2022-09-12T07:37:35.628Z,97880.22
2022-09-12T07:40:04.681Z,97886.91
2022-09-12T07:42:33.086Z,97885.56
2022-09-12T07:45:01.497Z,97881.94
2022-09-12T07:47:29.948Z,97881.88
2022-09-12T07:49:59.969Z,97883.94
2022-09-12T07:52:28.552Z,97882.34
2022-09-12T07:54:56.885Z,97880.31
2022-09-12T07:57:25.702Z,97888.13
2022-09-12T07:59:54.248Z,97887.50
2022-09-12T08:02:22.732Z,97893.69
2022-09-12T08:04:51.392Z,97880.28
2022-09-12T08:07:21.345Z,97882.41
2022-09-12T08:09:50.938Z,97883.69
2022-09-12T08:12:20.337Z,97892.38
2022-09-12T08:14:49.265Z,97898.84
2022-09-12T08:17:17.696Z,97896.34
2022-09-12T08:19:46.172Z,97899.16
2022-09-12T08:22:22.009Z,97902.69
2022-09-12T08:24:51.891Z,97901.53
2022-09-12T08:27:23.485Z,97908.22
2022-09-12T08:29:53.708Z,97910.34
2022-09-12T08:32:22.298Z,97914.41
2022-09-12T08:34:50.980Z,97909.53
2022-09-12T08:37:19.989Z,97910.63
2022-09-12T08:39:48.615Z,97907.38
2022-09-12T08:42:33.809Z,97905.31
2022-09-12T08:45:16.998Z,97896.34
2022-09-12T08:47:48.597Z,97901.44
2022-09-12T08:50:21.808Z,97906.31
2022-09-12T08:53:02.934Z,97898.72
2022-09-12T08:55:45.945Z,97893.09
2022-09-12T08:58:21.128Z,97883.16
2022-09-12T09:01:35.971Z,97892.19
2022-09-12T09:04:28.897Z,97893.00
2022-09-12T09:07:19.379Z,97898.31
2022-09-12T09:10:07.687Z,97891.66
2022-09-12T09:12:52.499Z,97893.00
2022-09-12T09:15:49.494Z,97891.47
2022-09-12T09:18:25.566Z,97890.78
2022-09-12T09:20:59.026Z,97891.34
2022-09-12T09:23:32.699Z,97890.47
2022-09-12T09:26:07.783Z,97885.47
2022-09-12T09:28:45.715Z,97891.59
2022-09-12T09:31:17.463Z,97887.19
2022-09-12T09:33:51.825Z,97891.66
2022-09-12T09:36:32.582Z,97888.31
2022-09-12T09:39:07.003Z,97888.94
2022-09-12T09:41:53.135Z,97892.03
2022-09-12T09:44:24.734Z,97884.44
2022-09-12T09:46:59.894Z,97884.97
2022-09-12T09:49:35.496Z,97878.78
2022-09-12T09:52:07.154Z,97883.47
2022-09-12T09:54:42.875Z,97879.34
2022-09-12T09:57:47.639Z,97884.41
2022-09-12T10:00:32.105Z,97889.84
2022-09-12T10:03:29.813Z,97891.50
2022-09-12T10:06:03.158Z,97879.84
2022-09-12T10:08:35.249Z,97876.88
2022-09-12T10:11:07.863Z,97878.25
2022-09-12T10:13:41.988Z,97869.09
2022-09-12T10:16:22.569Z,97868.06
2022-09-12T10:18:54.506Z,97862.69
2022-09-12T10:21:31.934Z,97859.66
2022-09-12T10:24:07.509Z,97866.53
2022-09-12T10:26:41.426Z,97861.56
2022-09-12T10:29:19.343Z,97861.97
2022-09-12T10:31:54.229Z,97858.44
2022-09-12T10:34:36.366Z,97859.94
2022-09-12T10:37:08.358Z,97857.66
2022-09-12T10:39:39.588Z,97864.94
2022-09-12T10:42:08.412Z,97855.06
2022-09-12T10:44:37.199Z,97858.38
2022-09-12T10:47:24.379Z,97853.28
2022-09-12T10:49:54.153Z,97854.44
2022-09-12T10:52:28.881Z,97857.28
2022-09-12T10:54:57.737Z,97848.09
2022-09-12T10:58:08.437Z,97852.91
2022-09-12T11:00:48.091Z,97843.72
2022-09-12T11:03:25.913Z,97835.03
2022-09-12T11:05:59.901Z,97838.56
2022-09-12T11:09:04.669Z,97824.84
2022-09-12T11:12:00.750Z,97831.91
2022-09-12T11:15:12.929Z,97812.94
2022-09-12T11:17:54.310Z,97820.25
2022-09-12T11:20:51.611Z,97812.81
2022-09-12T11:24:00.935Z,97813.03
2022-09-12T11:26:48.739Z,97807.75
2022-09-12T11:29:33.666Z,97801.28
2022-09-12T11:32:55.971Z,97806.88
2022-09-12T11:35:28.807Z,97801.03
2022-09-12T11:38:19.909Z,97800.56
2022-09-12T11:40:55.912Z,97799.88
2022-09-12T11:43:36.637Z,97797.63
2022-09-12T11:46:18.138Z,97790.66
2022-09-12T11:48:56.261Z,97786.19
2022-09-12T11:51:30.643Z,97798.00
2022-09-12T11:54:13.192Z,97789.19
2022-09-12T11:56:48.406Z,97782.06
2022-09-12T11:59:34.741Z,97787.72
2022-09-12T12:02:04.917Z,97788.41
2022-09-12T12:04:45.819Z,97787.72
2022-09-12T12:07:15.325Z,97787.47
2022-09-12T12:09:52.250Z,97786.38
2022-09-12T12:12:29.139Z,97778.22
2022-09-12T12:14:59.369Z,97791.41
2022-09-12T12:17:29.636Z,97775.38
2022-09-12T12:20:08.419Z,97778.88
2022-09-12T12:22:37.399Z,97764.75
2022-09-12T12:25:29.931Z,97769.72
2022-09-12T12:28:02.457Z,97761.41
2022-09-12T12:31:03.207Z,97760.75
2022-09-12T12:34:23.513Z,97757.41
2022-09-12T12:36:51.977Z,97762.81
2022-09-12T12:40:05.574Z,97760.63
2022-09-12T12:43:29.352Z,97757.41
2022-09-12T12:46:14.057Z,97753.25
2022-09-12T12:49:09.945Z,97752.69
2022-09-12T12:52:02.300Z,97745.59
2022-09-12T12:54:49.505Z,97745.91
2022-09-12T12:57:32.107Z,97735.91
2022-09-12T13:00:08.742Z,97729.72
2022-09-12T13:02:50.175Z,97742.94
2022-09-12T13:05:24.180Z,97733.06
2022-09-12T13:07:59.325Z,97730.16
2022-09-12T13:10:31.690Z,97733.19
2022-09-12T13:13:05.646Z,97718.09
2022-09-12T13:15:53.203Z,97722.75
2022-09-12T13:18:28.786Z,97720.34
2022-09-12T13:21:10.004Z,97716.00
2022-09-12T13:23:38.731Z,97702.44
2022-09-12T13:26:14.103Z,97709.78
2022-09-12T13:28:42.745Z,97702.91
2022-09-12T13:31:24.181Z,97691.56
2022-09-12T13:33:56.972Z,97697.16
2022-09-12T13:36:49.016Z,97694.13
2022-09-12T13:39:22.820Z,97696.09
2022-09-12T13:42:31.044Z,97687.56
2022-09-12T13:45:06.571Z,97683.50
2022-09-12T13:47:41.017Z,97684.78
2022-09-12T13:50:18.165Z,97681.22
2022-09-12T13:52:53.241Z,97681.28
2022-09-12T13:55:33.559Z,97681.06
2022-09-12T13:58:05.019Z,97678.81
2022-09-12T14:00:37.215Z,97685.03
2022-09-12T14:03:46.442Z,97676.84
2022-09-12T14:06:19.003Z,97681.78
2022-09-12T14:08:48.917Z,97675.75
2022-09-12T14:11:27.194Z,97671.97
2022-09-12T14:13:56.975Z,97667.66
2022-09-12T14:16:28.357Z,97666.09
2022-09-12T14:18:59.015Z,97659.19
2022-09-12T14:21:37.509Z,97663.53
2022-09-12T14:24:10.010Z,97666.66
2022-09-12T14:26:41.142Z,97663.22
2022-09-12T14:29:12.664Z,97660.34
2022-09-12T14:31:41.325Z,97652.88
2022-09-12T14:34:16.157Z,97651.72
2022-09-12T14:36:48.732Z,97653.00
2022-09-12T14:39:25.644Z,97646.69
2022-09-12T14:42:05.823Z,97650.16
2022-09-12T14:44:36.323Z,97645.19
2022-09-12T14:47:20.629Z,97649.50
2022-09-12T14:49:52.724Z,97655.38
2022-09-12T14:52:29.549Z,97649.31
2022-09-12T14:55:01.101Z,97645.69
2022-09-12T14:57:44.434Z,97643.19
2022-09-12T15:00:24.049Z,97645.44
2022-09-12T15:02:54.635Z,97645.72
2022-09-12T15:05:29.472Z,97645.69
2022-09-12T15:08:02.718Z,97645.25
2022-09-12T15:10:35.471Z,97643.47
2022-09-12T15:13:23.030Z,97643.59
2022-09-12T15:15:55.823Z,97642.66
2022-09-12T15:18:27.458Z,97639.88
2022-09-12T15:21:02.708Z,97642.50
2022-09-12T15:23:40.197Z,97637.53
2022-09-12T15:26:11.097Z,97644.00
2022-09-12T15:28:39.647Z,97641.09
2022-09-12T15:31:16.929Z,97634.16
2022-09-12T15:33:45.470Z,97632.56
2022-09-12T15:36:19.049Z,97632.34
2022-09-12T15:38:49.148Z,97641.50
2022-09-12T15:41:21.089Z,97643.47
2022-09-12T15:43:52.419Z,97629.81
2022-09-12T15:46:21.336Z,97633.09
2022-09-12T15:48:50.254Z,97631.69
2022-09-12T15:51:22.873Z,97628.47
2022-09-12T15:53:52.700Z,97618.63
2022-09-12T15:56:23.791Z,97622.13
2022-09-12T15:58:59.205Z,97621.44
2022-09-12T16:01:29.338Z,97619.53
2022-09-12T16:03:58.366Z,97620.66
2022-09-12T16:06:32.513Z,97613.72
2022-09-12T16:09:04.982Z,97612.25
2022-09-12T16:11:33.371Z,97613.06
2022-09-12T16:14:02.252Z,97612.34
2022-09-12T16:16:30.661Z,97609.97
2022-09-12T16:18:59.196Z,97602.41
2022-09-12T16:21:29.368Z,97606.78
2022-09-12T16:23:57.759Z,97611.56
2022-09-12T16:26:26.218Z,97606.81
2022-09-12T16:28:56.915Z,97601.25
2022-09-12T16:31:26.937Z,97598.91
2022-09-12T16:33:55.536Z,97596.97
2022-09-12T16:36:24.865Z,97601.75
2022-09-12T16:38:55.594Z,97599.84
2022-09-12T16:41:27.105Z,97593.47
2022-09-12T16:43:56.140Z,97595.09
2022-09-12T16:46:28.609Z,97603.38
2022-09-12T16:49:00.916Z,97590.75
2022-09-12T16:51:35.829Z,97598.28
2022-09-12T16:54:05.860Z,97591.53
2022-09-12T16:56:34.289Z,97600.63
2022-09-12T16:59:04.132Z,97603.78
2022-09-12T17:01:33.513Z,97597.84
2022-09-12T17:04:02.598Z,97594.69
2022-09-12T17:06:31.389Z,97595.50
2022-09-12T17:09:02.785Z,97597.84
2022-09-12T17:11:36.287Z,97595.44
2022-09-12T17:14:08.525Z,97593.44
2022-09-12T17:16:40.120Z,97587.84
2022-09-12T17:19:10.027Z,97590.53
2022-09-12T17:21:38.525Z,97592.38
2022-09-12T17:24:07.185Z,97593.00
2022-09-12T17:26:37.055Z,97593.66
2022-09-12T17:29:06.113Z,97591.09
2022-09-12T17:31:35.184Z,97585.53
2022-09-12T17:34:04.118Z,97580.94
2022-09-12T17:36:32.955Z,97591.38
2022-09-12T17:39:05.805Z,97593.16
2022-09-12T17:41:34.260Z,97592.50
2022-09-12T17:44:07.303Z,97587.72
2022-09-12T17:46:38.112Z,97595.88
2022-09-12T20:35:27.075Z,97601.53
2022-09-12T20:43:38.633Z,97581.06
2022-09-12T20:51:02.919Z,97571.59
2022-09-12T20:53:41.895Z,97569.19
2022-09-12T20:57:04.612Z,97570.97
2022-09-12T21:00:01.174Z,97573.44
2022-09-12T21:02:45.267Z,97578.19
2022-09-12T21:05:31.869Z,97586.06
2022-09-12T21:08:21.635Z,97594.72
2022-09-12T21:10:53.853Z,97585.19
2022-09-12T21:13:24.858Z,97581.66
2022-09-12T21:16:30.280Z,97582.72
2022-09-12T21:19:36.099Z,97576.78
2022-09-12T21:22:18.074Z,97581.00
2022-09-12T21:26:32.827Z,97600.72
2022-09-12T21:29:59.712Z,97587.50
2022-09-12T21:32:58.683Z,97569.81
2022-09-12T21:35:40.563Z,97579.75
2022-09-12T21:38:17.202Z,97576.16
2022-09-12T21:44:30.265Z,97581.53
2022-09-12T21:47:04.041Z,97581.53
2022-09-12T21:49:37.116Z,97578.69
2022-09-12T21:56:38.217Z,97585.28
2022-09-12T22:04:11.621Z,97587.50
2022-09-12T22:06:56.867Z,97591.34
2022-09-12T22:11:09.270Z,97593.28
2022-09-12T22:14:31.103Z,97596.31
2022-09-12T22:17:29.104Z,97582.72
2022-09-12T22:47:44.301Z,97582.59
2022-09-12T23:27:48.314Z,97531.94
2022-09-12T23:30:30.142Z,97524.69
2022-09-12T23:47:46.097Z,97513.72
